createdAt,value
2023-01-04T00:01:33.985Z,101239.00
2023-01-04T00:04:02.103Z,101223.00
2023-01-04T00:06:30.040Z,101215.00
2023-01-04T00:08:58.035Z,101221.00
2023-01-04T00:11:26.168Z,101222.00
2023-01-04T00:13:56.439Z,101206.00
2023-01-04T00:16:25.886Z,101208.00
2023-01-04T00:18:55.280Z,101199.00
2023-01-04T00:21:28.483Z,101197.00
2023-01-04T00:23:58.525Z,101195.00
2023-01-04T00:26:29.072Z,101188.00
2023-01-04T00:29:02.922Z,101177.00
2023-01-04T00:31:31.398Z,101183.00
2023-01-04T00:34:01.391Z,101178.00
2023-01-04T00:36:29.784Z,101171.00
2023-01-04T00:39:11.686Z,101165.00
2023-01-04T00:42:02.931Z,101159.00
2023-01-04T00:44:31.710Z,101153.00
2023-01-04T00:47:03.462Z,101143.00
2023-01-04T00:49:32.112Z,101150.00
2023-01-04T00:52:00.007Z,101144.00
2023-01-04T00:54:28.166Z,101131.00
2023-01-04T00:56:56.121Z,101135.00
2023-01-04T00:59:23.964Z,101127.00
2023-01-04T01:01:52.468Z,101118.00
2023-01-04T01:04:22.591Z,101113.00
2023-01-04T01:06:51.434Z,101115.00
2023-01-04T01:09:23.156Z,101116.00
2023-01-04T01:11:51.783Z,101115.00
2023-01-04T01:14:23.468Z,101107.00
2023-01-04T01:16:57.298Z,101101.00
2023-01-04T01:19:30.225Z,101100.00
2023-01-04T01:21:58.792Z,101090.00
2023-01-04T01:24:27.581Z,101089.00
2023-01-04T01:26:56.095Z,101089.00
2023-01-04T01:29:24.217Z,101077.00
2023-01-04T01:31:52.165Z,101063.00
2023-01-04T01:34:20.735Z,101067.00
2023-01-04T01:36:48.571Z,101064.00
2023-01-04T01:39:16.526Z,101055.00
2023-01-04T01:41:44.584Z,101057.00
2023-01-04T01:44:33.805Z,101054.00
2023-01-04T01:47:02.486Z,101048.00
2023-01-04T01:49:33.196Z,101044.00
2023-01-04T01:52:04.424Z,101049.00
2023-01-04T01:54:43.588Z,101035.00
2023-01-04T01:57:16.712Z,101046.00
2023-01-04T01:59:46.556Z,101030.00
2023-01-04T02:02:14.586Z,101033.00
2023-01-04T02:04:45.207Z,101030.00
2023-01-04T02:07:15.314Z,101023.00
2023-01-04T02:09:44.942Z,101016.00
2023-01-04T02:12:13.844Z,101006.00
2023-01-04T02:14:44.412Z,101002.00
2023-01-04T02:17:31.963Z,101003.00
2023-01-04T02:20:15.371Z,101005.00
2023-01-04T02:22:43.068Z,101010.00
2023-01-04T02:25:22.948Z,100989.00
2023-01-04T02:28:06.280Z,100993.00
2023-01-04T02:30:52.292Z,100984.00
2023-01-04T02:33:39.539Z,100981.00
2023-01-04T02:36:28.600Z,100977.00
2023-01-04T02:39:17.488Z,100972.00
2023-01-04T02:41:58.680Z,100966.00
2023-01-04T02:44:54.243Z,100955.00
2023-01-04T02:47:47.489Z,100952.00
2023-01-04T02:50:32.514Z,100934.00
2023-01-04T02:53:06.523Z,100921.00
2023-01-04T02:55:59.716Z,100911.00
2023-01-04T02:58:55.764Z,100906.00
2023-01-04T03:01:58.761Z,100897.00
2023-01-04T03:04:58.844Z,100885.00
2023-01-04T03:07:32.590Z,100876.00
2023-01-04T03:10:15.330Z,100872.00
2023-01-04T03:12:51.258Z,100860.00
2023-01-04T03:15:28.084Z,100853.00
2023-01-04T03:18:09.715Z,100859.00
2023-01-04T03:20:37.409Z,100847.00
2023-01-04T03:23:28.625Z,100852.00
2023-01-04T03:26:22.240Z,100833.00
2023-01-04T03:29:09.616Z,100845.00
2023-01-04T03:32:04.057Z,100824.00
2023-01-04T03:34:50.628Z,100819.00
2023-01-04T03:37:32.586Z,100823.00
2023-01-04T03:40:47.148Z,100817.00
2023-01-04T03:43:37.471Z,100811.00
2023-01-04T03:46:51.098Z,100805.00
2023-01-04T03:49:25.015Z,100801.00
2023-01-04T03:51:56.158Z,100803.00
2023-01-04T03:54:38.792Z,100792.00
2023-01-04T03:57:07.805Z,100786.00
2023-01-04T03:59:44.478Z,100766.00
2023-01-04T04:02:14.592Z,100756.00
2023-01-04T04:05:01.806Z,100755.00
2023-01-04T04:07:49.370Z,100748.00
2023-01-04T04:10:17.392Z,100748.00
2023-01-04T04:12:45.173Z,100735.00
2023-01-04T04:15:13.885Z,100740.00
2023-01-04T04:17:41.817Z,100730.00
2023-01-04T04:20:11.215Z,100724.00
2023-01-04T04:22:39.515Z,100717.00
2023-01-04T04:27:59.320Z,100704.00
2023-01-04T04:30:27.347Z,100700.00
2023-01-04T04:32:55.164Z,100696.00
2023-01-04T04:35:23.005Z,100696.00
2023-01-04T04:37:50.833Z,100687.00
2023-01-04T04:40:38.590Z,100683.00
2023-01-04T04:43:09.211Z,100685.00
2023-01-04T04:45:37.145Z,100675.00
2023-01-04T04:48:05.501Z,100666.00
2023-01-04T04:50:33.277Z,100660.00
2023-01-04T04:53:01.121Z,100655.00
2023-01-04T04:55:28.958Z,100641.00
2023-01-04T04:57:56.728Z,100642.00
2023-01-04T05:00:24.483Z,100635.00
2023-01-04T05:02:52.396Z,100642.00
2023-01-04T05:05:20.250Z,100635.00
2023-01-04T05:07:48.054Z,100641.00
2023-01-04T05:10:16.022Z,100625.00
2023-01-04T05:13:02.066Z,100623.00
2023-01-04T05:15:36.623Z,100623.00
2023-01-04T05:18:06.275Z,100615.00
2023-01-04T05:20:34.649Z,100617.00
2023-01-04T05:23:02.492Z,100618.00
2023-01-04T05:25:30.825Z,100613.00
2023-01-04T05:27:58.753Z,100586.00
2023-01-04T05:30:44.972Z,100570.00
2023-01-04T05:33:13.434Z,100571.00
2023-01-04T05:35:41.387Z,100579.00
2023-01-04T05:38:09.352Z,100580.00
2023-01-04T05:40:37.183Z,100580.00
2023-01-04T05:43:04.800Z,100563.00
2023-01-04T05:45:32.963Z,100545.00
2023-01-04T05:48:01.168Z,100555.00
2023-01-04T05:50:28.904Z,100540.00
2023-01-04T05:53:05.343Z,100547.00
2023-01-04T05:55:33.872Z,100538.00
2023-01-04T05:58:01.953Z,100546.00
2023-01-04T06:00:29.769Z,100522.00
2023-01-04T06:02:57.706Z,100512.00
2023-01-04T06:05:26.550Z,100506.00
2023-01-04T06:07:55.008Z,100505.00
2023-01-04T06:10:22.984Z,100497.00
2023-01-04T06:12:50.963Z,100482.00
2023-01-04T06:15:19.146Z,100488.00
2023-01-04T06:17:47.173Z,100474.00
2023-01-04T06:20:14.869Z,100475.00
2023-01-04T06:22:44.305Z,100464.00
2023-01-04T06:25:12.115Z,100443.00
2023-01-04T06:27:40.153Z,100446.00
2023-01-04T06:30:08.582Z,100441.00
2023-01-04T06:32:36.625Z,100430.00
2023-01-04T06:35:05.137Z,100423.00
2023-01-04T06:37:33.219Z,100415.00
2023-01-04T06:40:00.928Z,100423.00
2023-01-04T06:42:46.725Z,100421.00
2023-01-04T06:45:16.132Z,100419.00
2023-01-04T06:47:44.187Z,100401.00
2023-01-04T06:50:12.542Z,100403.00
2023-01-04T06:52:40.623Z,100399.00
2023-01-04T06:55:11.776Z,100393.00
2023-01-04T06:57:39.702Z,100394.00
2023-01-04T07:00:09.451Z,100403.00
2023-01-04T07:02:37.621Z,100385.00
2023-01-04T07:05:05.954Z,100384.00
2023-01-04T07:07:34.529Z,100377.00
2023-01-04T07:10:09.172Z,100379.00
2023-01-04T07:12:39.002Z,100373.00
2023-01-04T07:15:39.275Z,100394.00
2023-01-04T07:17:55.876Z,100360.00
2023-01-04T07:20:24.004Z,100367.00
2023-01-04T07:22:51.989Z,100372.00
2023-01-04T07:25:20.546Z,100357.00
2023-01-04T07:27:53.047Z,100356.00
2023-01-04T07:30:22.133Z,100379.00
2023-01-04T07:32:53.707Z,100354.00
2023-01-04T07:35:21.981Z,100337.00
2023-01-04T07:37:55.642Z,100350.00
2023-01-04T07:40:25.950Z,100348.00
2023-01-04T07:42:59.658Z,100343.00
2023-01-04T07:45:27.957Z,100342.00
2023-01-04T07:47:56.254Z,100335.00
2023-01-04T07:50:24.267Z,100334.00
2023-01-04T07:52:52.124Z,100342.00
2023-01-04T07:55:20.082Z,100331.00
2023-01-04T07:57:48.130Z,100337.00
2023-01-04T08:00:16.442Z,100341.00
2023-01-04T08:02:44.518Z,100322.00
2023-01-04T08:05:12.657Z,100302.00
2023-01-04T08:07:40.574Z,100330.00
2023-01-04T08:10:09.041Z,100316.00
2023-01-04T08:12:36.850Z,100332.00
2023-01-04T08:15:05.095Z,100300.00
2023-01-04T08:17:32.897Z,100350.00
2023-01-04T08:20:01.808Z,100335.00
2023-01-04T08:22:29.474Z,100344.00
2023-01-04T08:24:59.561Z,100347.00
2023-01-04T08:27:27.376Z,100337.00
2023-01-04T08:29:55.146Z,100345.00
2023-01-04T08:32:23.185Z,100338.00
2023-01-04T08:34:51.059Z,100344.00
2023-01-04T08:37:18.947Z,100348.00
2023-01-04T08:39:49.339Z,100347.00
2023-01-04T08:42:26.555Z,100343.00
2023-01-04T08:45:01.244Z,100343.00
2023-01-04T08:47:33.937Z,100337.00
2023-01-04T08:50:08.098Z,100335.00
2023-01-04T08:52:38.612Z,100351.00
2023-01-04T08:55:12.280Z,100330.00
2023-01-04T08:57:40.678Z,100348.00
2023-01-04T09:00:09.592Z,100341.00
2023-01-04T09:02:37.569Z,100321.00
2023-01-04T09:05:06.192Z,100333.00
2023-01-04T09:07:34.445Z,100320.00
2023-01-04T09:10:02.490Z,100335.00
2023-01-04T09:12:30.412Z,100337.00
2023-01-04T09:14:58.280Z,100330.00
2023-01-04T09:17:25.933Z,100319.00
2023-01-04T09:19:53.823Z,100331.00
2023-01-04T09:22:21.648Z,100314.00
2023-01-04T09:24:49.654Z,100342.00
2023-01-04T09:27:17.640Z,100303.00
2023-01-04T09:29:45.487Z,100289.00
2023-01-04T09:32:16.880Z,100277.00
2023-01-04T09:34:44.985Z,100277.00
2023-01-04T09:37:12.800Z,100276.00
2023-01-04T09:39:40.606Z,100269.00
2023-01-04T09:42:20.838Z,100261.00
2023-01-04T09:47:45.412Z,100277.00
2023-01-04T09:50:32.433Z,100281.00
2023-01-04T09:53:23.764Z,100266.00
2023-01-04T09:55:53.063Z,100250.00
2023-01-04T09:58:30.926Z,100263.00
2023-01-04T10:01:03.252Z,100239.00
2023-01-04T10:03:34.144Z,100254.00
2023-01-04T10:06:02.746Z,100242.00
2023-01-04T10:08:34.085Z,100238.00
2023-01-04T10:11:35.794Z,100231.00
2023-01-04T10:14:29.640Z,100242.00
2023-01-04T10:17:13.627Z,100225.00
2023-01-04T10:23:35.843Z,100228.00
2023-01-04T10:26:15.549Z,100234.00
2023-01-04T10:28:59.743Z,100215.00
2023-01-04T10:31:40.320Z,100213.00
2023-01-04T10:34:27.590Z,100197.00
2023-01-04T10:37:05.158Z,100211.00
2023-01-04T10:39:34.493Z,100185.00
2023-01-04T10:42:15.307Z,100211.00
2023-01-04T10:45:08.712Z,100204.00
2023-01-04T10:48:04.577Z,100186.00
2023-01-04T10:51:07.101Z,100203.00
2023-01-04T10:53:59.699Z,100160.00
2023-01-04T10:56:35.855Z,100154.00
2023-01-04T10:59:23.965Z,100158.00
2023-01-04T11:02:27.337Z,100153.00
2023-01-04T11:05:21.028Z,100168.00
2023-01-04T11:08:01.215Z,100155.00
2023-01-04T11:10:32.252Z,100201.00
2023-01-04T11:13:00.036Z,100192.00
2023-01-04T11:15:28.817Z,100144.00
2023-01-04T11:17:57.098Z,100151.00
2023-01-04T11:20:27.070Z,100134.00
2023-01-04T11:23:05.511Z,100166.00
2023-01-04T11:25:39.290Z,100142.00
2023-01-04T11:28:13.207Z,100160.00
2023-01-04T11:30:51.112Z,100160.00
2023-01-04T11:33:21.597Z,100153.00
2023-01-04T11:35:51.875Z,100135.00
2023-01-04T11:38:29.663Z,100151.00
2023-01-04T11:41:06.016Z,100135.00
2023-01-04T11:43:39.638Z,100120.00
2023-01-04T11:46:18.057Z,100132.00
2023-01-04T11:48:47.666Z,100107.00
2023-01-04T11:51:20.103Z,100128.00
2023-01-04T11:54:17.233Z,100146.00
2023-01-04T11:57:08.830Z,100110.00
2023-01-04T11:59:39.221Z,100104.00
2023-01-04T12:05:28.934Z,100087.00
2023-01-04T12:07:58.904Z,100100.00
2023-01-04T12:10:28.532Z,100104.00
2023-01-04T12:12:59.174Z,100104.00
2023-01-04T12:15:56.291Z,100096.00
2023-01-04T12:18:29.084Z,100075.00
2023-01-04T12:21:02.441Z,100070.00
2023-01-04T12:23:30.979Z,100053.00
2023-01-04T12:25:58.997Z,100116.00
2023-01-04T12:28:41.511Z,100060.00
2023-01-04T12:31:21.867Z,100058.00
2023-01-04T12:33:55.625Z,100065.00
2023-01-04T12:36:43.688Z,100049.00
2023-01-04T12:39:16.375Z,100054.00
2023-01-04T12:42:00.906Z,100056.00
2023-01-04T12:44:40.838Z,100050.00
2023-01-04T12:47:39.202Z,100062.00
2023-01-04T12:50:11.984Z,100056.00
2023-01-04T12:53:28.339Z,100041.00
2023-01-04T12:55:39.312Z,100048.00
2023-01-04T13:01:26.360Z,100031.00
2023-01-04T13:04:05.953Z,100035.00
2023-01-04T13:06:41.061Z,100014.00
2023-01-04T13:09:24.003Z,100047.00
2023-01-04T13:12:16.168Z,100034.00
2023-01-04T13:14:58.216Z,100036.00
2023-01-04T13:17:30.545Z,100014.00
2023-01-04T13:19:58.590Z,100021.00
2023-01-04T13:22:31.755Z,100020.00
2023-01-04T13:25:00.469Z,99999.00
2023-01-04T13:27:28.660Z,100005.00
2023-01-04T13:29:56.676Z,100014.00
2023-01-04T13:32:25.354Z,100017.00
2023-01-04T13:35:14.933Z,99992.00
2023-01-04T13:37:47.874Z,99991.00
2023-01-04T13:40:26.758Z,99998.00
2023-01-04T13:43:06.408Z,99998.00
2023-01-04T13:46:05.762Z,100023.00
2023-01-04T13:48:39.548Z,100008.00
2023-01-04T13:51:16.820Z,100026.00
2023-01-04T13:53:54.685Z,99994.00
2023-01-04T13:56:25.917Z,99996.00
2023-01-04T13:58:54.125Z,99994.00
2023-01-04T14:01:29.042Z,99981.00
2023-01-04T14:03:59.643Z,99992.00
2023-01-04T14:06:58.196Z,99973.00
2023-01-04T14:09:31.724Z,99981.00
2023-01-04T14:12:07.827Z,99965.00
2023-01-04T14:15:01.056Z,99965.00
2023-01-04T14:17:50.325Z,99956.00
2023-01-04T14:20:22.971Z,99968.00
2023-01-04T14:22:52.643Z,99963.00
2023-01-04T14:25:43.694Z,99961.00
2023-01-04T14:28:25.227Z,99976.00
2023-01-04T14:30:59.414Z,99952.00
2023-01-04T14:33:33.494Z,99969.00
2023-01-04T14:36:11.215Z,99971.00
2023-01-04T14:38:54.285Z,99935.00
2023-01-04T14:41:34.678Z,99929.00
2023-01-04T14:44:16.176Z,99953.00
2023-01-04T14:46:47.398Z,99943.00
2023-01-04T14:49:15.731Z,99940.00
2023-01-04T14:51:49.602Z,99925.00
2023-01-04T14:54:24.254Z,99921.00
2023-01-04T14:56:54.367Z,99921.00
2023-01-04T14:59:25.599Z,99922.00
2023-01-04T15:01:55.589Z,99931.00
2023-01-04T15:04:24.358Z,99910.00
2023-01-04T15:06:59.087Z,99911.00
2023-01-04T15:09:30.127Z,99920.00
2023-01-04T15:11:58.441Z,99923.00
2023-01-04T15:14:26.479Z,99916.00
2023-01-04T15:16:54.540Z,99909.00
2023-01-04T15:19:22.597Z,99920.00
2023-01-04T15:21:50.436Z,99918.00
2023-01-04T15:24:18.328Z,99916.00
2023-01-04T15:26:46.169Z,99936.00
2023-01-04T15:29:14.062Z,99913.00
2023-01-04T15:31:43.908Z,99920.00
2023-01-04T15:34:11.791Z,99900.00
2023-01-04T15:36:41.438Z,99919.00
2023-01-04T15:39:13.441Z,99924.00
2023-01-04T15:42:00.181Z,99921.00
2023-01-04T15:44:28.320Z,99919.00
2023-01-04T15:46:56.255Z,99916.00
2023-01-04T15:49:24.204Z,99906.00
2023-01-04T15:51:52.145Z,99910.00
2023-01-04T15:54:22.106Z,99906.00
2023-01-04T15:56:50.053Z,99902.00
2023-01-04T15:59:18.137Z,99902.00
2023-01-04T16:01:46.491Z,99898.00
2023-01-04T16:04:14.659Z,99897.00
2023-01-04T16:06:44.333Z,99931.00
2023-01-04T16:09:12.624Z,99901.00
2023-01-04T16:12:00.272Z,99895.00
2023-01-04T16:14:28.189Z,99891.00
2023-01-04T16:16:56.681Z,99877.00
2023-01-04T16:19:24.659Z,99879.00
2023-01-04T16:21:52.515Z,99884.00
2023-01-04T16:24:53.290Z,99884.00
2023-01-04T16:27:09.917Z,99891.00
2023-01-04T16:29:38.003Z,99884.00
2023-01-04T16:32:06.227Z,99877.00
2023-01-04T16:34:34.243Z,99881.00
2023-01-04T16:37:02.071Z,99884.00
2023-01-04T16:42:17.829Z,99881.00
2023-01-04T16:44:45.733Z,99888.00
2023-01-04T16:47:13.782Z,99884.00
2023-01-04T16:49:43.273Z,99894.00
2023-01-04T16:52:13.407Z,99891.00
2023-01-04T16:54:41.399Z,99892.00
2023-01-04T16:57:09.357Z,99882.00
2023-01-04T16:59:37.317Z,99875.00
2023-01-04T17:02:05.584Z,99869.00
2023-01-04T17:04:33.570Z,99873.00
2023-01-04T17:07:01.649Z,99869.00
2023-01-04T17:09:29.588Z,99866.00
2023-01-04T17:14:45.543Z,99865.00
2023-01-04T17:17:14.687Z,99864.00
2023-01-04T17:19:42.633Z,99865.00
2023-01-04T17:22:10.488Z,99850.00
2023-01-04T17:24:38.303Z,99849.00
2023-01-04T17:27:06.376Z,99848.00
2023-01-04T17:29:34.088Z,99840.00
2023-01-04T17:32:02.633Z,99839.00
2023-01-04T17:34:30.573Z,99836.00
2023-01-04T17:36:58.396Z,99826.00
2023-01-04T17:39:27.116Z,99845.00
2023-01-04T17:41:55.052Z,99841.00
2023-01-04T17:44:22.947Z,99835.00
2023-01-04T17:46:50.774Z,99841.00
2023-01-04T17:49:24.147Z,99844.00
2023-01-04T17:51:55.985Z,99852.00
2023-01-04T17:54:25.830Z,99848.00
2023-01-04T17:56:53.764Z,99842.00
2023-01-04T17:59:21.924Z,99855.00
2023-01-04T18:01:50.071Z,99843.00
2023-01-04T18:04:18.067Z,99841.00
2023-01-04T18:06:45.920Z,99838.00
2023-01-04T18:09:16.921Z,99838.00
2023-01-04T18:11:49.285Z,99835.00
2023-01-04T18:14:17.292Z,99843.00
2023-01-04T18:16:58.173Z,99825.00
2023-01-04T18:19:30.893Z,99837.00
2023-01-04T18:22:00.442Z,99829.00
2023-01-04T18:24:37.361Z,99822.00
2023-01-04T18:27:25.264Z,99820.00
2023-01-04T18:29:55.292Z,99809.00
2023-01-04T18:32:24.088Z,99805.00
2023-01-04T18:34:51.970Z,99804.00
2023-01-04T18:37:20.071Z,99807.00
2023-01-04T18:39:48.823Z,99808.00
2023-01-04T18:42:17.233Z,99806.00
2023-01-04T18:44:49.049Z,99817.00
2023-01-04T18:47:21.366Z,99806.00
2023-01-04T18:49:53.366Z,99799.00
2023-01-04T18:52:21.447Z,99828.00
2023-01-04T18:54:49.456Z,99812.00
2023-01-04T18:57:17.451Z,99805.00
2023-01-04T18:59:49.990Z,99817.00
2023-01-04T19:02:19.734Z,99818.00
2023-01-04T19:04:48.075Z,99808.00
2023-01-04T19:07:15.978Z,99812.00
2023-01-04T19:09:44.413Z,99801.00
2023-01-04T19:12:12.403Z,99809.00
2023-01-04T19:14:41.312Z,99803.00
2023-01-04T19:17:10.015Z,99802.00
2023-01-04T19:19:38.233Z,99798.00
2023-01-04T19:22:06.363Z,99801.00
2023-01-04T19:24:34.399Z,99800.00
2023-01-04T19:27:03.573Z,99794.00
2023-01-04T19:29:32.594Z,99806.00
2023-01-04T19:32:00.544Z,99800.00
2023-01-04T19:34:29.121Z,99802.00
2023-01-04T19:36:56.898Z,99797.00
2023-01-04T19:39:24.807Z,99799.00
2023-01-04T19:41:52.622Z,99799.00
2023-01-04T19:44:20.479Z,99788.00
2023-01-04T19:46:48.485Z,99785.00
2023-01-04T19:49:17.507Z,99779.00
2023-01-04T19:51:47.397Z,99791.00
2023-01-04T19:54:19.901Z,99795.00
2023-01-04T19:56:52.640Z,99797.00
2023-01-04T19:59:20.650Z,99790.00
2023-01-04T20:01:48.902Z,99793.00
2023-01-04T20:04:17.590Z,99782.00
2023-01-04T20:06:45.702Z,99778.00
2023-01-04T20:09:13.898Z,99785.00
2023-01-04T20:11:42.081Z,99783.00
2023-01-04T20:14:10.072Z,99778.00
2023-01-04T20:16:37.929Z,99777.00
2023-01-04T20:19:05.828Z,99780.00
2023-01-04T20:21:33.957Z,99783.00
2023-01-04T20:24:02.158Z,99790.00
2023-01-04T20:26:30.174Z,99797.00
2023-01-04T20:28:58.033Z,99794.00
2023-01-04T20:31:25.876Z,99797.00
2023-01-04T20:33:54.031Z,99788.00
2023-01-04T20:36:23.754Z,99784.00
2023-01-04T20:38:51.444Z,99782.00
2023-01-04T20:41:21.251Z,99790.00
2023-01-04T20:43:49.941Z,99789.00
2023-01-04T20:46:24.164Z,99786.00
2023-01-04T20:48:52.545Z,99787.00
2023-01-04T20:51:25.385Z,99788.00
2023-01-04T20:53:54.102Z,99778.00
2023-01-04T20:56:27.545Z,99778.00
2023-01-04T20:58:56.112Z,99778.00
2023-01-04T21:01:25.566Z,99788.00
2023-01-04T21:03:53.583Z,99788.00
2023-01-04T21:06:23.339Z,99786.00
2023-01-04T21:08:55.089Z,99797.00
2023-01-04T21:11:23.288Z,99797.00
2023-01-04T21:13:54.458Z,99793.00
2023-01-04T21:16:22.607Z,99800.00
2023-01-04T21:18:50.429Z,99822.00
2023-01-04T21:21:20.146Z,99800.00
2023-01-04T21:23:51.796Z,99795.00
2023-01-04T21:26:24.111Z,99792.00
2023-01-04T21:28:51.994Z,99806.00
2023-01-04T21:31:24.138Z,99795.00
2023-01-04T21:33:53.017Z,99793.00
2023-01-04T21:36:23.846Z,99812.00
2023-01-04T21:38:53.436Z,99799.00
2023-01-04T21:41:25.224Z,99805.00
2023-01-04T21:43:55.284Z,99785.00
2023-01-04T21:46:23.854Z,99796.00
2023-01-04T21:48:55.800Z,99790.00
2023-01-04T21:51:24.282Z,99797.00
2023-01-04T21:53:52.293Z,99807.00
2023-01-04T21:56:22.208Z,99799.00
2023-01-04T21:58:50.576Z,99817.00
2023-01-04T22:01:22.164Z,99809.00
2023-01-04T22:03:50.457Z,99821.00
2023-01-04T22:06:19.312Z,99826.00
2023-01-04T22:08:47.731Z,99830.00
2023-01-04T22:11:16.587Z,99806.00
2023-01-04T22:13:44.989Z,99817.00
2023-01-04T22:16:17.220Z,99811.00
2023-01-04T22:18:48.923Z,99821.00
2023-01-04T22:21:19.656Z,99825.00
2023-01-04T22:23:48.833Z,99821.00
2023-01-04T22:26:17.208Z,99811.00
2023-01-04T22:28:45.113Z,99819.00
2023-01-04T22:31:14.480Z,99824.00
2023-01-04T22:33:42.768Z,99832.00
2023-01-04T22:36:22.269Z,99822.00
2023-01-04T22:38:52.336Z,99839.00
2023-01-04T22:41:21.824Z,99828.00
2023-01-04T22:44:01.476Z,99829.00
2023-01-04T22:46:30.427Z,99829.00
2023-01-04T22:48:59.283Z,99837.00
2023-01-04T22:51:27.788Z,99838.00
2023-01-04T22:53:57.123Z,99836.00
2023-01-04T22:56:25.913Z,99841.00
2023-01-04T22:58:55.904Z,99842.00
2023-01-04T23:01:28.962Z,99834.00
2023-01-04T23:03:58.287Z,99824.00
2023-01-04T23:06:27.692Z,99822.00
2023-01-04T23:09:04.349Z,99817.00
2023-01-04T23:11:33.603Z,99828.00
2023-01-04T23:14:03.925Z,99821.00
2023-01-04T23:16:33.412Z,99819.00
2023-01-04T23:19:06.095Z,99825.00
2023-01-04T23:21:34.967Z,99809.00
2023-01-04T23:24:03.436Z,99826.00
2023-01-04T23:26:32.388Z,99822.00
2023-01-04T23:29:01.747Z,99826.00
2023-01-04T23:31:31.294Z,99841.00
2023-01-04T23:34:02.471Z,99835.00
2023-01-04T23:36:33.574Z,99837.00
2023-01-04T23:39:04.282Z,99837.00
2023-01-04T23:41:47.758Z,99828.00
2023-01-04T23:44:17.236Z,99822.00
2023-01-04T23:46:45.813Z,99812.00
2023-01-04T23:49:13.851Z,99820.00
2023-01-04T23:51:42.858Z,99821.00
2023-01-04T23:54:11.120Z,99807.00
2023-01-04T23:56:39.700Z,99813.00
2023-01-04T23:59:08.320Z,99826.00
